Startpagina
METAR-TAF:

METAR-TAF

Vliegvelden :

Bonriki International Airport

Tarawa, Kiribati

breedte: 01-21N, lengte: 172-55E, hoogte: 2 m

Actueel weer

Dit bericht is 35 minuten geleden gemaakt, om 10:00 UTC
Wind 4 kt uit het noordoosten
Temperatuur 26°C
Vochtigheid 89%
Druk 1010 hPa
Zicht: 9000 m
Verspreide wolken op 1800 ft, Stapelwolken.
Gebroken wolken op 4500 ft
lichte regenbuien

METAR: NGTA 191000Z 04004KT 9000 -SHRA SCT018TCU BKN045 26/24 Q1010

Tijdstip: 00:35 (10:35 UTC)

Verwachting

Dit bericht is 5 uur en het 30 minuten geleden gemaakt, om 05:05 UTC
Verwachting geldig van 19 om 06 UTC tot 20 om 06 UTC
Wind 10 kt uit het oosten
Zicht 10 km of meer
Verspreide wolken op 2000 ft
Verspreide wolken op 10000 ft
Kans 40% :
Tijdelijke
van 19 om 06 UTC tot 19 om 18 UTC
Zicht: 5000 m
Gebroken wolken op 1500 ft
regenbuien

TAF: NGTA 190505Z 1906/2006 10010KT 9999 SCT020 SCT100 PROB40 TEMPO 1906/1918 5000 SHRA BKN015

Waarnemingen en weersverwachtingen van meer dan 4000 vliegvelden (METAR en TAF).

De beschikbare stations zijn de gele en rode punten op de kaart.

Ga met uw muis naar het station om de naam te zien.

Klik dan om waarnemingen en weersverwachtingen te zien.

kaart wijzigen: klik op de groene knoppen met een zwart kruis om in te zoomen, op de groene knop met een streepje om uit te zoomen of op de groene pijlen voor aangrenzende kaarten.


METAR-TAF: